createdAt,value
2018-12-25T00:00:10.744Z,3.2
2018-12-25T00:05:00.782Z,3.1
2018-12-25T00:10:00.734Z,3.0
2018-12-25T00:15:00.806Z,2.8
2018-12-25T00:25:00.978Z,3.2
2018-12-25T00:30:00.743Z,3.2
2018-12-25T00:35:06.785Z,3.5
2018-12-25T00:40:00.742Z,3.3
2018-12-25T00:45:00.807Z,3.1
2018-12-25T00:50:00.746Z,2.9
2018-12-25T00:55:01.099Z,3.0
2018-12-25T01:00:00.788Z,3.2
2018-12-25T01:05:00.909Z,3.5
2018-12-25T01:10:00.755Z,4.1
2018-12-25T01:15:00.884Z,4.0
2018-12-25T01:20:00.750Z,4.1
2018-12-25T01:25:00.819Z,3.9
2018-12-25T01:30:00.755Z,3.6
2018-12-25T01:35:00.924Z,3.1
2018-12-25T01:40:00.802Z,3.8
2018-12-25T01:45:00.870Z,3.6
2018-12-25T01:50:00.795Z,3.4
2018-12-25T02:00:05.864Z,3.4
2018-12-25T02:05:00.931Z,2.9
2018-12-25T02:10:00.791Z,3.1
2018-12-25T02:15:00.908Z,3.3
2018-12-25T02:20:00.972Z,3.6
2018-12-25T02:25:00.834Z,3.7
2018-12-25T02:30:00.768Z,3.9
2018-12-25T02:35:00.944Z,3.6
2018-12-25T02:40:00.809Z,3.2
2018-12-25T02:45:01.282Z,3.2
2018-12-25T02:50:01.063Z,3.5
2018-12-25T02:55:05.850Z,3.1
2018-12-25T03:00:00.804Z,3.2
2018-12-25T03:05:00.778Z,3.8
2018-12-25T03:10:00.823Z,3.6
2018-12-25T03:15:01.008Z,3.4
2018-12-25T03:20:02.067Z,3.7
2018-12-25T03:30:01.106Z,3.1
2018-12-25T03:35:00.858Z,3.3
2018-12-25T03:40:00.790Z,3.6
2018-12-25T03:45:01.110Z,3.6
2018-12-25T03:50:10.295Z,3.8
2018-12-25T03:55:00.855Z,4.2
2018-12-25T04:00:00.783Z,4.2
2018-12-25T04:05:00.949Z,4.1
2018-12-25T04:10:00.800Z,3.8
2018-12-25T04:15:01.227Z,3.4
2018-12-25T04:20:02.057Z,3.1
2018-12-25T04:25:00.860Z,3.0
2018-12-25T04:30:05.815Z,3.2
2018-12-25T04:35:00.861Z,3.6
2018-12-25T04:40:00.797Z,3.5
2018-12-25T04:45:00.933Z,3.4
2018-12-25T04:55:00.906Z,3.0
2018-12-25T05:00:05.822Z,3.0
2018-12-25T05:05:00.886Z,3.7
2018-12-25T05:10:00.806Z,3.9
2018-12-25T05:15:00.811Z,4.6
2018-12-25T05:20:00.813Z,4.5
2018-12-25T05:25:01.007Z,4.1
2018-12-25T05:30:00.808Z,3.9
2018-12-25T05:35:00.881Z,4.3
2018-12-25T05:40:00.821Z,3.6
2018-12-25T05:45:00.880Z,3.7
2018-12-25T05:50:00.817Z,3.9
2018-12-25T06:00:00.885Z,3.8
2018-12-25T06:05:00.925Z,4.0
2018-12-25T06:10:00.852Z,3.6
2018-12-25T06:15:00.819Z,3.8
2018-12-25T06:20:00.852Z,3.5
2018-12-25T06:25:00.914Z,3.1
2018-12-25T06:30:01.386Z,2.8
2018-12-25T06:35:00.836Z,3.3
2018-12-25T06:40:00.849Z,3.2
2018-12-25T06:45:00.893Z,3.4
2018-12-25T06:50:00.827Z,3.2
2018-12-25T06:55:00.956Z,3.6
2018-12-25T07:00:00.862Z,3.4
2018-12-25T07:05:00.889Z,4.0
2018-12-25T07:15:00.901Z,4.3
2018-12-25T07:20:05.838Z,4.6
2018-12-25T07:25:02.074Z,4.7
2018-12-25T07:30:00.841Z,4.4
2018-12-25T07:35:00.964Z,4.5
2018-12-25T07:40:00.838Z,4.3
2018-12-25T07:45:00.844Z,4.0
2018-12-25T07:50:00.853Z,4.1
2018-12-25T07:55:00.905Z,4.4
2018-12-25T08:00:00.843Z,4.4
2018-12-25T08:05:01.035Z,4.2
2018-12-25T08:10:00.840Z,4.1
2018-12-25T08:15:00.908Z,4.0
2018-12-25T08:20:01.479Z,3.5
2018-12-25T08:30:00.925Z,3.9
2018-12-25T08:35:00.984Z,4.1
2018-12-25T08:40:00.855Z,4.0
2018-12-25T08:45:00.921Z,4.3
2018-12-25T08:50:00.857Z,4.8
2018-12-25T08:55:00.924Z,5.2
2018-12-25T09:00:00.877Z,5.2
2018-12-25T09:05:00.989Z,6.1
2018-12-25T09:10:00.861Z,6.6
2018-12-25T09:15:00.926Z,6.2
2018-12-25T09:20:00.858Z,6.5
2018-12-25T09:25:05.943Z,7.5
2018-12-25T09:30:05.868Z,7.2
2018-12-25T09:35:01.193Z,6.7
2018-12-25T09:45:05.937Z,6.1
2018-12-25T09:50:00.875Z,4.9
2018-12-25T09:55:00.949Z,4.2
2018-12-25T10:00:00.843Z,3.6
2018-12-25T10:05:00.999Z,3.2
2018-12-25T10:15:00.944Z,3.0
2018-12-25T10:20:00.879Z,3.4
2018-12-25T10:25:00.946Z,4.6
2018-12-25T10:30:00.849Z,5.0
2018-12-25T10:35:01.280Z,5.2
2018-12-25T10:40:00.882Z,5.4
2018-12-25T10:45:00.947Z,5.2
2018-12-25T10:55:05.956Z,5.6
2018-12-25T11:00:10.899Z,6.4
2018-12-25T11:05:01.017Z,6.6
2018-12-25T11:10:00.862Z,6.8
2018-12-25T11:15:00.959Z,6.2
2018-12-25T11:20:00.926Z,5.6
2018-12-25T11:25:00.989Z,4.2
2018-12-25T11:30:00.870Z,4.5
2018-12-25T11:35:01.033Z,4.0
2018-12-25T11:40:00.902Z,3.9
2018-12-25T11:45:06.044Z,3.5
2018-12-25T11:50:00.904Z,6.7
2018-12-25T11:55:01.174Z,6.3
2018-12-25T12:00:00.931Z,6.7
2018-12-25T12:05:01.038Z,7.9
2018-12-25T12:10:00.945Z,8.5
2018-12-25T12:15:01.048Z,5.2
2018-12-25T12:20:00.915Z,4.9
2018-12-25T12:25:01.098Z,4.8
2018-12-25T12:30:00.917Z,4.2
2018-12-25T12:35:00.913Z,3.9
2018-12-25T12:40:00.957Z,4.1
2018-12-25T12:45:01.051Z,5.0
2018-12-25T12:50:00.922Z,5.5
2018-12-25T12:55:01.074Z,4.9
2018-12-25T13:00:00.935Z,5.1
2018-12-25T13:05:00.924Z,5.2
2018-12-25T13:10:00.930Z,4.4
2018-12-25T13:15:01.055Z,3.9
2018-12-25T13:20:00.928Z,4.1
2018-12-25T13:25:06.003Z,3.8
2018-12-25T13:30:00.925Z,3.8
2018-12-25T13:35:01.670Z,4.2
2018-12-25T13:45:01.069Z,4.7
2018-12-25T13:50:00.941Z,5.0
2018-12-25T13:55:01.348Z,5.1
2018-12-25T14:00:01.633Z,4.9
2018-12-25T14:05:01.003Z,4.5
2018-12-25T14:10:05.948Z,3.5
2018-12-25T14:15:01.062Z,3.9
2018-12-25T14:20:00.947Z,3.8
2018-12-25T14:25:00.943Z,3.4
2018-12-25T14:30:01.149Z,3.7
2018-12-25T14:40:01.070Z,3.3
2018-12-25T14:45:01.009Z,3.3
2018-12-25T14:50:01.617Z,3.7
2018-12-25T14:55:00.949Z,4.6
2018-12-25T15:00:00.947Z,5.6
2018-12-25T15:05:00.964Z,5.4
2018-12-25T15:10:01.943Z,5.6
2018-12-25T15:15:00.950Z,5.6
2018-12-25T15:20:00.951Z,5.0
2018-12-25T15:25:00.946Z,7.5
2018-12-25T15:30:00.951Z,8.7
2018-12-25T15:35:01.019Z,10.2
2018-12-25T15:40:00.956Z,11.1
2018-12-25T15:45:01.021Z,12.6
2018-12-25T15:50:00.960Z,10.7
2018-12-25T15:55:00.962Z,10.0
2018-12-25T16:00:00.965Z,9.0
2018-12-25T16:05:00.960Z,9.7
2018-12-25T16:10:00.957Z,8.6
2018-12-25T16:15:01.034Z,8.3
2018-12-25T16:20:00.967Z,8.6
2018-12-25T16:25:00.967Z,8.4
2018-12-25T16:30:05.976Z,8.0
2018-12-25T16:35:01.016Z,8.6
2018-12-25T16:40:01.018Z,9.4
2018-12-25T16:45:01.037Z,9.6
2018-12-25T16:50:01.011Z,10.3
2018-12-25T16:55:01.073Z,10.0
2018-12-25T17:00:00.978Z,9.6
2018-12-25T17:05:01.040Z,8.6
2018-12-25T17:10:05.996Z,8.2
2018-12-25T17:15:01.053Z,8.2
2018-12-25T17:20:01.014Z,8.1
2018-12-25T17:25:01.100Z,8.0
2018-12-25T17:30:00.984Z,8.5
2018-12-25T17:35:01.092Z,8.4
2018-12-25T17:45:01.051Z,8.2
2018-12-25T17:50:00.986Z,8.7
2018-12-25T17:55:01.118Z,8.0
2018-12-25T18:00:00.989Z,8.3
2018-12-25T18:05:01.086Z,7.6
2018-12-25T18:10:00.995Z,7.5
2018-12-25T18:15:01.092Z,7.2
2018-12-25T18:25:00.997Z,7.0
2018-12-25T18:30:00.998Z,7.8
2018-12-25T18:35:01.001Z,7.9
2018-12-25T18:40:01.186Z,7.6
2018-12-25T18:45:01.068Z,7.2
2018-12-25T18:50:01.038Z,7.3
2018-12-25T18:55:01.167Z,6.8
2018-12-25T19:00:06.024Z,7.1
2018-12-25T19:05:01.035Z,7.8
2018-12-25T19:15:01.624Z,8.1
2018-12-25T19:20:01.010Z,8.8
2018-12-25T19:40:00.429Z,4.0
2018-12-25T19:45:00.582Z,4.0
2018-12-25T19:50:00.387Z,5.9
2018-12-25T19:55:00.357Z,6.2
2018-12-25T20:00:00.666Z,6.3
2018-12-25T20:05:01.478Z,6.9
2018-12-25T20:10:00.514Z,7.6
2018-12-25T20:15:00.531Z,7.2
2018-12-25T20:20:00.446Z,7.7
2018-12-25T20:40:01.204Z,12.6
2018-12-25T21:00:00.300Z,7.0
2018-12-25T21:20:00.585Z,10.0
2018-12-25T21:40:00.916Z,13.4
2018-12-25T21:45:00.873Z,12.6
2018-12-25T21:50:00.746Z,11.7
2018-12-25T21:55:00.810Z,11.2
2018-12-25T22:00:00.845Z,11.2
2018-12-25T22:05:05.825Z,10.7
2018-12-25T22:10:00.753Z,10.2
2018-12-25T22:15:00.977Z,9.9
2018-12-25T22:20:00.756Z,9.7
2018-12-25T22:25:00.895Z,9.6
2018-12-25T22:30:01.173Z,9.4
2018-12-25T22:35:01.053Z,9.0
2018-12-25T22:40:00.757Z,8.8
2018-12-25T22:45:00.796Z,8.6
2018-12-25T22:50:00.769Z,8.3
2018-12-25T22:55:00.831Z,7.9
2018-12-25T23:00:01.325Z,7.7
2018-12-25T23:05:00.797Z,7.8
2018-12-25T23:10:00.802Z,9.2
2018-12-25T23:15:00.872Z,8.7
2018-12-25T23:20:05.788Z,8.1
2018-12-25T23:25:00.869Z,8.0
2018-12-25T23:30:00.816Z,7.6
2018-12-25T23:35:00.818Z,6.7
2018-12-25T23:40:00.807Z,7.6
2018-12-25T23:45:02.858Z,7.8
2018-12-25T23:50:05.797Z,7.9
2018-12-25T23:55:00.880Z,9.7
